Current Conditions for Raleigh NC


Raleigh-Durham International Airport
KRDU - Raleigh-Durham Intl, North Carolina, USA
Distance from station: WNW 4mi, 6km
Updated: Fri, 21-Jun-2024 6:51am MDT
Few Clouds
Few Clouds
 Wind from calm
Wind: Calm
Temperature: 79°F, 26°C
Dew Point: 66°F, 19°C
Humidity: 65%
Barometer: 30.28 inHg, 1025.4 hPa
Clouds: Few Clouds
Visibility: 10 miles, 16 km
Cloud details: Few Clouds 25000 ft
2024/06/21 12:51 KRDU 211251Z 00000KT 10SM FEW250 26/19 A3028 RMK AO2 SLP249 T02610189

7 Day Forecast for Raleigh NC from meteoblue

meteoblue

Images above are clickable. However, you may view Raleigh NC forecasts in a new tab from other weather providers using this LINK.


Raleigh NC Radar from National Weather Service

Radar

Southeast Satellite - GOES 16

You may need to Refresh your broswer multiple times for the image to download.


Raleigh Webcam from Windy.com

Raleigh

Regional High Temperatures Today

Temps

Regional 48-Hour Precipitation Outlook

Rain